Newtonia, Missouri
Current Conditions -  °F | °C
As of 3:55 PM on Saturday 25 Oct 2014 (Local Time) from KHFJ Reporting Station
Clear Clear  
Wind Chill: 81°   Ceiling: Unl
Heat Index: 82°   Visibility: 10mi
Dew Point: 63°   Wind: 5mph
Humidity: 54%   Direction: 210°SSW
Pressure: 30.05"   Gusts: NA
Location:  36.88°N, 94.19°W
Report Text: KHFJ 252055Z AUTO 21004KT 10SM CLR 27/17 A3005 RMK AO2
Loading
Personal Weather Stations






























Interactive Weather Map
Tropical Storm Tracking
New forecast layout! Learn more

10-Day Weather Forecast

Advertisements
Track Severe Weather on mobile